createdAt,value
2019-05-17T00:00:07.784Z,40.20
2019-05-17T00:02:37.422Z,36.90
2019-05-17T00:05:08.226Z,36.50
2019-05-17T00:07:37.127Z,31.50
2019-05-17T00:10:07.588Z,29.00
2019-05-17T00:12:36.740Z,31.40
2019-05-17T00:15:08.000Z,30.40
2019-05-17T00:17:37.653Z,29.00
2019-05-17T00:20:09.250Z,27.00
2019-05-17T00:22:37.681Z,32.00
2019-05-17T00:25:07.579Z,32.30
2019-05-17T00:27:37.222Z,34.40
2019-05-17T00:30:09.412Z,20.90
2019-05-17T00:32:38.029Z,16.60
2019-05-17T00:35:07.472Z,22.20
2019-05-17T00:37:37.206Z,25.90
2019-05-17T00:40:07.883Z,38.60
2019-05-17T00:42:37.190Z,25.50
2019-05-17T00:45:08.584Z,43.30
2019-05-17T00:47:37.392Z,43.20
2019-05-17T00:50:07.938Z,45.70
2019-05-17T00:52:37.526Z,54.40
2019-05-17T00:55:07.513Z,52.80
2019-05-17T00:57:36.903Z,55.50
2019-05-17T01:00:08.493Z,56.30
2019-05-17T01:02:37.340Z,57.80
2019-05-17T01:05:07.697Z,61.70
2019-05-17T01:07:37.597Z,54.50
2019-05-17T01:10:08.272Z,61.20
2019-05-17T01:12:36.840Z,49.60
2019-05-17T01:15:07.618Z,55.00
2019-05-17T01:17:36.601Z,62.70
2019-05-17T01:20:07.852Z,63.10
2019-05-17T01:22:36.687Z,60.00
2019-05-17T01:25:09.362Z,68.30
2019-05-17T01:27:38.370Z,68.00
2019-05-17T01:30:09.630Z,65.50
2019-05-17T01:32:38.056Z,65.80
2019-05-17T01:35:07.515Z,64.80
2019-05-17T01:37:37.023Z,66.00
2019-05-17T01:40:07.044Z,60.80
2019-05-17T01:42:37.504Z,61.20
2019-05-17T01:45:10.050Z,59.30
2019-05-17T01:47:38.476Z,59.80
2019-05-17T01:50:10.053Z,63.00
2019-05-17T01:52:38.644Z,62.60
2019-05-17T01:55:10.380Z,70.00
2019-05-17T01:57:38.813Z,74.60
2019-05-17T02:00:09.234Z,75.20
2019-05-17T02:02:39.369Z,62.80
2019-05-17T02:05:08.709Z,69.00
2019-05-17T02:07:37.345Z,73.00
2019-05-17T02:10:07.762Z,79.00
2019-05-17T02:12:37.205Z,78.30
2019-05-17T02:15:08.449Z,75.10
2019-05-17T02:17:37.443Z,70.50
2019-05-17T02:20:10.858Z,70.10
2019-05-17T02:22:39.355Z,68.00
2019-05-17T02:25:09.476Z,69.90
2019-05-17T02:27:43.939Z,65.90
2019-05-17T02:30:14.003Z,57.40
2019-05-17T02:32:43.200Z,58.20
2019-05-17T02:35:14.765Z,61.70
2019-05-17T02:37:43.825Z,66.30
2019-05-17T02:40:14.878Z,75.70
2019-05-17T02:42:44.141Z,70.10
2019-05-17T02:45:14.459Z,73.10
2019-05-17T02:47:43.811Z,73.20
2019-05-17T02:50:13.792Z,69.80
2019-05-17T02:52:43.472Z,68.40
2019-05-17T02:55:13.415Z,66.90
2019-05-17T02:57:43.665Z,71.50
2019-05-17T03:00:14.137Z,68.80
2019-05-17T03:02:43.831Z,68.40
2019-05-17T03:05:14.106Z,67.60
2019-05-17T03:07:43.733Z,70.50
2019-05-17T03:10:23.582Z,65.40
2019-05-17T03:12:45.022Z,67.00
2019-05-17T03:15:15.361Z,70.30
2019-05-17T03:17:44.042Z,71.50
2019-05-17T03:20:14.466Z,70.00
2019-05-17T03:22:44.217Z,69.90
2019-05-17T03:25:14.214Z,71.50
2019-05-17T03:27:43.663Z,69.50
2019-05-17T03:30:17.360Z,71.70
2019-05-17T03:32:47.522Z,72.70
2019-05-17T03:35:17.184Z,73.80
2019-05-17T03:37:44.966Z,74.40
2019-05-17T03:40:35.372Z,77.40
2019-05-17T03:42:44.192Z,78.00
2019-05-17T03:45:13.931Z,78.30
2019-05-17T03:47:44.492Z,76.60
2019-05-17T03:50:14.016Z,74.30
2019-05-17T03:52:44.401Z,73.20
2019-05-17T03:55:13.590Z,74.90
2019-05-17T03:57:44.132Z,76.00
2019-05-17T04:00:13.651Z,75.00
2019-05-17T04:02:44.578Z,76.30
2019-05-17T04:05:13.339Z,75.70
2019-05-17T04:07:43.546Z,75.00
2019-05-17T04:10:15.087Z,73.50
2019-05-17T04:12:48.199Z,72.30
2019-05-17T04:15:23.650Z,71.10
2019-05-17T04:17:55.498Z,71.60
2019-05-17T04:20:24.150Z,69.90
2019-05-17T04:22:55.719Z,68.50
2019-05-17T04:25:24.168Z,61.90
2019-05-17T04:27:53.609Z,61.90
2019-05-17T04:30:23.319Z,62.00
2019-05-17T04:32:52.960Z,61.90
2019-05-17T04:35:23.350Z,62.70
2019-05-17T04:37:53.096Z,63.10
2019-05-17T04:40:23.157Z,62.20
2019-05-17T04:42:52.662Z,67.40
2019-05-17T04:45:23.004Z,66.90
2019-05-17T04:47:52.864Z,61.50
2019-05-17T04:50:23.068Z,58.50
2019-05-17T04:52:53.639Z,58.50
2019-05-17T04:55:23.122Z,39.90
2019-05-17T04:57:52.940Z,28.80
2019-05-17T05:00:22.412Z,45.70
2019-05-17T05:02:52.760Z,1.00
2019-05-17T05:05:22.884Z,99.90
2019-05-17T05:07:53.509Z,1.00
2019-05-17T05:10:22.573Z,1.00
2019-05-17T05:12:52.444Z,1.00
2019-05-17T05:15:36.372Z,1.00
2019-05-17T05:18:05.000Z,92.60
2019-05-17T05:20:33.493Z,1.00
2019-05-17T05:23:02.761Z,1.00
2019-05-17T05:25:32.305Z,99.90
2019-05-17T05:28:02.494Z,99.90
2019-05-17T05:30:32.013Z,99.90
2019-05-17T05:33:02.025Z,99.90
2019-05-17T05:35:31.817Z,97.20
2019-05-17T05:38:02.186Z,1.00
2019-05-17T05:40:32.016Z,1.00
2019-05-17T05:43:02.375Z,1.00
2019-05-17T05:45:32.069Z,1.00
2019-05-17T05:48:01.834Z,1.00
2019-05-17T05:50:32.379Z,1.00
2019-05-17T05:53:02.003Z,1.00
2019-05-17T05:55:32.194Z,1.00
2019-05-17T05:58:02.923Z,1.00
2019-05-17T06:00:33.038Z,1.00
2019-05-17T06:03:04.199Z,1.00
2019-05-17T06:05:32.503Z,1.00
2019-05-17T06:08:02.917Z,1.00
2019-05-17T06:10:32.520Z,1.00
2019-05-17T06:13:03.060Z,1.00
2019-05-17T06:15:32.048Z,1.00
2019-05-17T06:18:02.958Z,1.00
2019-05-17T06:20:32.350Z,1.00
2019-05-17T06:23:02.595Z,1.00
2019-05-17T06:25:34.132Z,1.00
2019-05-17T06:28:01.700Z,1.00
2019-05-17T06:30:32.363Z,1.00
2019-05-17T06:33:02.500Z,1.00
2019-05-17T06:35:32.535Z,1.00
2019-05-17T06:38:01.900Z,1.00
2019-05-17T06:40:32.317Z,1.00
2019-05-17T06:43:04.304Z,1.00
2019-05-17T06:45:32.625Z,1.00
2019-05-17T06:48:02.523Z,1.00
2019-05-17T06:50:32.718Z,1.00
2019-05-17T06:53:03.175Z,1.00
2019-05-17T06:55:31.694Z,1.00
2019-05-17T06:58:01.726Z,1.00
2019-05-17T07:00:30.522Z,1.00
2019-05-17T07:03:00.691Z,1.00
2019-05-17T07:05:30.801Z,1.00
2019-05-17T07:08:00.257Z,1.00
2019-05-17T07:10:30.167Z,1.00
2019-05-17T07:13:01.697Z,1.00
2019-05-17T07:15:43.326Z,1.00
2019-05-17T07:17:59.956Z,1.00
2019-05-17T07:20:29.928Z,1.00
2019-05-17T07:23:00.370Z,1.00
2019-05-17T07:25:30.369Z,1.00
2019-05-17T07:28:00.475Z,1.00
2019-05-17T07:30:30.538Z,1.00
2019-05-17T07:33:00.430Z,1.00
2019-05-17T07:35:30.040Z,1.00
2019-05-17T07:37:59.534Z,1.00
2019-05-17T07:40:30.252Z,1.00
2019-05-17T07:43:10.227Z,1.00
2019-05-17T07:45:29.582Z,1.00
2019-05-17T07:48:00.029Z,1.00
2019-05-17T07:50:29.279Z,1.00
2019-05-17T07:52:57.880Z,1.00
2019-05-17T07:55:26.301Z,1.00
2019-05-17T07:57:54.746Z,1.00
2019-05-17T08:00:23.324Z,1.00
2019-05-17T08:02:51.758Z,1.00
2019-05-17T08:05:21.447Z,1.00
2019-05-17T08:07:50.250Z,1.00
2019-05-17T08:10:20.466Z,1.00
2019-05-17T08:12:49.827Z,1.00
2019-05-17T08:15:19.818Z,1.00
2019-05-17T08:17:50.222Z,1.00
2019-05-17T08:20:20.384Z,1.00
2019-05-17T08:22:50.279Z,1.00
2019-05-17T08:25:20.053Z,1.00
2019-05-17T08:27:50.361Z,1.00
2019-05-17T08:30:20.735Z,1.00
2019-05-17T08:32:50.476Z,1.00
2019-05-17T08:35:19.798Z,1.00
2019-05-17T08:37:49.894Z,1.00
2019-05-17T08:40:20.001Z,1.00
2019-05-17T08:42:49.899Z,1.00
2019-05-17T08:45:20.597Z,1.00
2019-05-17T08:47:50.004Z,1.00
2019-05-17T08:50:20.070Z,1.00
2019-05-17T08:52:49.489Z,1.00
2019-05-17T08:55:20.301Z,1.00
2019-05-17T08:57:50.094Z,1.00
2019-05-17T09:00:20.743Z,1.00
2019-05-17T09:02:50.009Z,1.00
2019-05-17T09:05:21.178Z,1.00
2019-05-17T09:07:49.327Z,1.00
2019-05-17T09:10:20.750Z,1.00
2019-05-17T09:12:50.244Z,1.00
2019-05-17T09:15:20.353Z,1.00
2019-05-17T09:17:49.871Z,1.00
2019-05-17T09:20:20.390Z,1.00
2019-05-17T09:22:51.042Z,1.00
2019-05-17T09:25:21.964Z,1.00
2019-05-17T09:27:50.143Z,1.00
2019-05-17T09:30:20.395Z,1.00
2019-05-17T09:32:50.315Z,1.00
2019-05-17T09:35:20.739Z,1.00
2019-05-17T09:37:49.902Z,1.00
2019-05-17T09:40:20.076Z,1.00
2019-05-17T09:42:49.920Z,1.00
2019-05-17T09:45:20.179Z,1.00
2019-05-17T09:47:50.604Z,1.00
2019-05-17T09:50:20.157Z,1.00
2019-05-17T09:52:49.441Z,1.00
2019-05-17T09:55:19.670Z,99.90
2019-05-17T09:57:49.662Z,1.00
2019-05-17T10:00:20.907Z,1.00
2019-05-17T10:02:50.818Z,1.00
2019-05-17T10:05:20.128Z,1.00
2019-05-17T10:10:20.272Z,99.90
2019-05-17T10:12:49.577Z,1.00
2019-05-17T10:15:20.756Z,99.90
2019-05-17T10:17:48.855Z,99.90
2019-05-17T10:20:19.850Z,99.90
2019-05-17T10:22:50.430Z,99.90
2019-05-17T10:25:20.090Z,99.90
2019-05-17T10:27:49.804Z,99.90
2019-05-17T10:30:20.737Z,99.90
2019-05-17T10:32:50.490Z,99.90
2019-05-17T10:35:19.943Z,99.90
2019-05-17T10:37:50.571Z,99.90
2019-05-17T10:40:20.795Z,99.90
2019-05-17T10:42:50.008Z,99.90
2019-05-17T10:45:19.846Z,99.90
2019-05-17T10:47:50.272Z,99.90
2019-05-17T10:50:20.540Z,99.90
2019-05-17T10:52:49.314Z,99.90
2019-05-17T10:55:19.922Z,99.90
2019-05-17T10:57:49.984Z,99.90
2019-05-17T11:00:19.830Z,99.90
2019-05-17T11:02:50.402Z,99.90
2019-05-17T11:05:20.110Z,99.90
2019-05-17T11:07:50.417Z,99.90
2019-05-17T11:10:19.669Z,99.90
2019-05-17T11:12:48.119Z,99.90
2019-05-17T11:15:19.592Z,99.90
2019-05-17T11:17:48.022Z,99.90
2019-05-17T11:20:16.912Z,99.90
2019-05-17T11:22:45.343Z,99.90
2019-05-17T11:25:14.077Z,99.90
2019-05-17T11:27:42.561Z,99.90
2019-05-17T11:30:11.683Z,99.90
2019-05-17T11:32:40.267Z,99.90
2019-05-17T11:35:08.834Z,99.90
2019-05-17T11:37:37.265Z,99.90
2019-05-17T11:40:08.452Z,99.90
2019-05-17T11:42:36.945Z,99.90
2019-05-17T11:45:06.422Z,99.90
2019-05-17T11:47:34.959Z,99.90
2019-05-17T11:50:05.130Z,99.90
2019-05-17T11:52:33.558Z,99.90
2019-05-17T11:55:02.155Z,99.90
2019-05-17T11:57:30.639Z,99.90
2019-05-17T11:59:59.073Z,99.90
2019-05-17T12:02:27.624Z,99.90
2019-05-17T12:04:56.049Z,99.90
2019-05-17T12:07:24.477Z,99.90
2019-05-17T12:09:52.964Z,99.90
2019-05-17T12:12:21.420Z,99.90
2019-05-17T12:14:49.935Z,99.90
2019-05-17T12:17:18.378Z,99.90
2019-05-17T12:19:46.896Z,99.90
2019-05-17T12:22:15.392Z,99.90
2019-05-17T12:24:43.857Z,99.90
2019-05-17T12:27:12.289Z,99.90
2019-05-17T12:29:40.815Z,99.90
2019-05-17T12:32:15.929Z,99.90
2019-05-17T12:34:39.590Z,99.90
2019-05-17T12:37:08.095Z,99.90
2019-05-17T12:39:36.589Z,99.90
2019-05-17T12:42:05.163Z,99.90
2019-05-17T12:44:36.921Z,99.90
2019-05-17T12:47:03.887Z,99.90
2019-05-17T12:49:32.321Z,99.90
2019-05-17T12:52:00.817Z,99.90
2019-05-17T12:54:29.260Z,99.90
2019-05-17T12:56:57.692Z,99.90
2019-05-17T12:59:26.141Z,99.90
2019-05-17T13:01:54.574Z,99.90
2019-05-17T13:04:23.013Z,99.90
2019-05-17T13:06:51.472Z,99.90
2019-05-17T13:09:19.901Z,99.90
2019-05-17T13:11:48.330Z,99.90
2019-05-17T13:14:16.784Z,99.90
2019-05-17T13:16:45.215Z,99.90
2019-05-17T13:19:13.729Z,99.90
2019-05-17T13:21:42.190Z,99.90
2019-05-17T13:24:10.683Z,99.90
2019-05-17T13:26:39.158Z,99.90
2019-05-17T13:29:07.680Z,99.90
2019-05-17T13:31:36.118Z,99.90
2019-05-17T13:34:04.706Z,99.90
2019-05-17T13:36:33.159Z,99.90
2019-05-17T13:39:01.646Z,99.90
2019-05-17T13:41:30.116Z,99.90
2019-05-17T13:43:58.610Z,99.90
2019-05-17T13:46:33.045Z,99.90
2019-05-17T13:48:57.262Z,99.90
2019-05-17T13:51:25.737Z,99.90
2019-05-17T13:53:54.185Z,99.90
2019-05-17T13:56:22.712Z,99.90
2019-05-17T13:58:51.133Z,99.90
2019-05-17T14:01:19.635Z,99.90
2019-05-17T14:03:48.234Z,99.90
2019-05-17T14:06:16.790Z,99.90
2019-05-17T14:08:46.022Z,99.90
2019-05-17T14:11:14.448Z,99.90
2019-05-17T14:13:42.883Z,99.90
2019-05-17T14:16:11.338Z,99.90
2019-05-17T14:18:39.936Z,99.90
2019-05-17T14:21:08.413Z,99.90
2019-05-17T14:23:36.896Z,99.90
2019-05-17T14:26:05.449Z,99.90
2019-05-17T14:28:33.995Z,99.90
2019-05-17T14:31:02.511Z,99.90
2019-05-17T14:33:30.951Z,99.90
2019-05-17T14:35:59.475Z,99.90
2019-05-17T14:38:28.035Z,99.90
2019-05-17T14:41:11.957Z,99.90
2019-05-17T14:43:26.747Z,99.90
2019-05-17T14:45:55.221Z,99.90
2019-05-17T14:48:23.802Z,99.90
2019-05-17T14:50:52.375Z,99.90
2019-05-17T14:53:20.804Z,99.90
2019-05-17T14:55:49.337Z,99.90
2019-05-17T14:58:17.874Z,99.90
2019-05-17T15:00:46.323Z,99.90
2019-05-17T15:03:15.000Z,99.90
2019-05-17T15:05:43.789Z,99.90
2019-05-17T15:08:12.253Z,99.90
2019-05-17T15:10:40.683Z,99.90
2019-05-17T15:13:09.133Z,99.90
2019-05-17T15:15:37.637Z,99.90
2019-05-17T15:18:09.406Z,99.90
2019-05-17T15:20:36.394Z,99.90
2019-05-17T15:23:04.959Z,99.90
2019-05-17T15:25:33.509Z,99.90
2019-05-17T15:28:02.081Z,99.90
2019-05-17T15:30:30.781Z,99.90
2019-05-17T15:32:59.617Z,99.90
2019-05-17T15:35:28.107Z,99.90
2019-05-17T15:37:56.621Z,99.90
2019-05-17T15:40:25.098Z,99.90
2019-05-17T15:42:53.608Z,99.90
2019-05-17T15:45:22.065Z,99.90
2019-05-17T15:47:50.676Z,99.90
2019-05-17T15:50:19.520Z,99.90
2019-05-17T15:52:48.021Z,99.90
2019-05-17T15:55:18.099Z,99.90
2019-05-17T15:57:46.588Z,99.90
2019-05-17T16:00:16.757Z,1.00
2019-05-17T16:02:45.200Z,1.00
2019-05-17T16:05:14.864Z,1.00
2019-05-17T16:07:43.317Z,1.00
2019-05-17T16:10:12.303Z,1.00
2019-05-17T16:12:40.896Z,99.90
2019-05-17T16:15:10.035Z,1.00
2019-05-17T16:17:38.540Z,99.90
2019-05-17T16:20:09.114Z,1.00
2019-05-17T16:22:37.558Z,10.90
2019-05-17T16:25:07.264Z,56.30
2019-05-17T16:27:35.954Z,77.80
2019-05-17T16:30:06.062Z,39.20
2019-05-17T16:32:34.511Z,69.80
2019-05-17T16:35:02.935Z,88.70
2019-05-17T16:37:31.486Z,66.80
2019-05-17T16:39:59.908Z,88.40
2019-05-17T16:42:28.491Z,50.80
2019-05-17T16:44:56.948Z,74.90
2019-05-17T16:47:25.392Z,86.10
2019-05-17T16:49:53.820Z,77.30
2019-05-17T16:52:22.272Z,91.40
2019-05-17T16:54:50.697Z,73.90
2019-05-17T16:57:19.236Z,58.00
2019-05-17T16:59:48.381Z,63.50
2019-05-17T17:02:16.921Z,64.00
2019-05-17T17:04:45.385Z,31.00
2019-05-17T17:07:16.739Z,40.80
2019-05-17T17:09:45.254Z,30.50
2019-05-17T17:12:13.783Z,52.80
2019-05-17T17:14:42.462Z,31.60
2019-05-17T17:17:12.477Z,41.60
2019-05-17T17:19:41.169Z,16.30
2019-05-17T17:22:09.700Z,1.00
2019-05-17T17:24:38.136Z,37.20
2019-05-17T17:27:06.577Z,36.80
2019-05-17T17:29:35.033Z,48.10
2019-05-17T17:32:03.474Z,55.40
2019-05-17T17:34:31.988Z,42.80
2019-05-17T17:37:00.438Z,50.50
2019-05-17T17:39:28.973Z,70.40
2019-05-17T17:41:57.458Z,89.20
2019-05-17T17:44:25.974Z,89.70
2019-05-17T17:46:54.406Z,80.90
2019-05-17T17:49:22.848Z,62.20
2019-05-17T17:51:51.309Z,56.50
2019-05-17T17:54:19.750Z,69.40
2019-05-17T17:56:48.400Z,66.90
2019-05-17T17:59:17.331Z,72.60
2019-05-17T18:01:45.893Z,67.30
2019-05-17T18:04:14.377Z,35.10
2019-05-17T18:06:42.824Z,21.90
2019-05-17T18:09:11.249Z,1.00
2019-05-17T18:11:39.925Z,32.90
2019-05-17T18:14:13.204Z,48.50
2019-05-17T18:16:38.801Z,20.90
2019-05-17T18:19:07.468Z,11.50
2019-05-17T18:21:35.925Z,23.60
2019-05-17T18:24:04.589Z,29.30
2019-05-17T18:26:33.081Z,47.60
2019-05-17T18:29:02.367Z,38.90
2019-05-17T18:31:30.931Z,38.30
2019-05-17T18:33:59.365Z,46.40
2019-05-17T18:36:28.184Z,43.30
2019-05-17T18:38:56.857Z,42.20
2019-05-17T18:41:25.280Z,50.80
2019-05-17T18:43:53.732Z,56.60
2019-05-17T18:46:22.447Z,54.40
2019-05-17T18:48:50.984Z,43.70
2019-05-17T18:51:19.472Z,44.50
2019-05-17T18:53:48.165Z,29.20
2019-05-17T18:56:16.760Z,30.00
2019-05-17T18:58:45.260Z,12.00
2019-05-17T19:01:13.770Z,31.50
2019-05-17T19:03:42.211Z,41.90
2019-05-17T19:06:10.722Z,53.20
2019-05-17T19:08:39.317Z,32.50
2019-05-17T19:11:07.955Z,36.10
2019-05-17T19:13:36.409Z,56.70
2019-05-17T19:16:04.992Z,63.50
2019-05-17T19:18:33.416Z,50.70
2019-05-17T19:21:01.931Z,54.40
2019-05-17T19:23:30.419Z,62.20
2019-05-17T19:25:58.929Z,61.20
2019-05-17T19:28:27.607Z,49.80
2019-05-17T19:30:56.093Z,47.00
2019-05-17T19:33:24.533Z,24.80
2019-05-17T19:35:53.041Z,45.30
2019-05-17T19:38:21.489Z,68.50
2019-05-17T19:40:49.941Z,59.70
2019-05-17T19:43:18.375Z,44.20
2019-05-17T19:45:46.908Z,43.90
2019-05-17T19:48:15.440Z,49.80
2019-05-17T19:50:43.947Z,54.10
2019-05-17T19:53:12.588Z,60.40
2019-05-17T19:55:41.024Z,62.50
2019-05-17T19:58:09.449Z,76.00
2019-05-17T20:00:37.895Z,64.70
2019-05-17T20:03:06.409Z,54.80
2019-05-17T20:05:35.010Z,54.10
2019-05-17T20:08:03.559Z,38.80
2019-05-17T20:10:32.086Z,35.20
2019-05-17T20:13:00.568Z,27.10
2019-05-17T20:15:34.664Z,14.00
2019-05-17T20:17:59.253Z,19.10
2019-05-17T20:20:27.850Z,7.30
2019-05-17T20:22:56.353Z,23.40
2019-05-17T20:25:24.789Z,41.40
2019-05-17T20:27:53.227Z,67.40
2019-05-17T20:30:21.895Z,74.40
2019-05-17T20:32:50.407Z,80.00
2019-05-17T20:35:18.842Z,63.80
2019-05-17T20:37:47.420Z,52.20
2019-05-17T20:40:16.840Z,28.80
2019-05-17T20:42:45.305Z,31.10
2019-05-17T20:45:14.794Z,16.80
2019-05-17T20:47:43.297Z,6.10
2019-05-17T20:50:12.228Z,1.00
2019-05-17T20:52:40.661Z,11.20
2019-05-17T20:55:09.628Z,4.60
2019-05-17T20:57:38.081Z,1.00
2019-05-17T21:00:07.945Z,1.00
2019-05-17T21:02:36.372Z,19.20
2019-05-17T21:05:08.216Z,1.00
2019-05-17T21:07:36.872Z,26.40
2019-05-17T21:10:06.857Z,24.00
2019-05-17T21:12:35.352Z,14.10
2019-05-17T21:15:05.825Z,26.60
2019-05-17T21:17:34.429Z,48.40
2019-05-17T21:20:03.108Z,61.10
2019-05-17T21:22:32.101Z,58.30
2019-05-17T21:25:00.525Z,56.30
2019-05-17T21:27:29.029Z,55.20
2019-05-17T21:29:57.525Z,70.50
2019-05-17T21:32:25.957Z,77.30
2019-05-17T21:34:54.509Z,91.50
2019-05-17T21:37:23.032Z,92.90
2019-05-17T21:39:51.461Z,95.70
2019-05-17T21:42:39.252Z,95.70
2019-05-17T21:45:08.121Z,96.80
2019-05-17T21:47:36.616Z,98.20
2019-05-17T21:50:05.750Z,98.80
2019-05-17T21:52:34.214Z,99.70
2019-05-17T21:55:02.952Z,99.90
2019-05-17T21:57:31.597Z,99.90
2019-05-17T22:00:00.040Z,99.90
2019-05-17T22:02:28.711Z,99.90
2019-05-17T22:04:57.208Z,99.90
2019-05-17T22:07:25.636Z,99.90
2019-05-17T22:09:54.237Z,99.90
2019-05-17T22:12:22.786Z,99.90
2019-05-17T22:14:51.210Z,99.90
2019-05-17T22:17:19.642Z,99.90
2019-05-17T22:19:48.093Z,99.90
2019-05-17T22:22:16.536Z,99.90
2019-05-17T22:24:44.987Z,99.90
2019-05-17T22:27:13.445Z,99.90
2019-05-17T22:29:42.111Z,99.90
2019-05-17T22:32:10.566Z,99.90
2019-05-17T22:34:39.112Z,99.90
2019-05-17T22:37:07.618Z,99.90
2019-05-17T22:39:36.042Z,99.90
2019-05-17T22:42:04.567Z,99.90
2019-05-17T22:44:33.065Z,99.90
2019-05-17T22:47:01.498Z,99.90
2019-05-17T22:49:29.987Z,99.90
2019-05-17T22:51:58.421Z,99.90
2019-05-17T22:54:27.109Z,99.90
2019-05-17T22:56:55.560Z,99.90
2019-05-17T22:59:23.981Z,99.90
2019-05-17T23:01:52.425Z,99.90
2019-05-17T23:04:20.920Z,99.90
2019-05-17T23:06:49.418Z,99.90
2019-05-17T23:09:17.977Z,99.90
2019-05-17T23:11:46.403Z,99.90
2019-05-17T23:14:14.833Z,99.90
2019-05-17T23:16:50.993Z,99.90
2019-05-17T23:19:13.450Z,99.90
2019-05-17T23:21:41.936Z,99.90
2019-05-17T23:24:10.393Z,99.90
2019-05-17T23:26:38.821Z,99.90
2019-05-17T23:29:07.275Z,99.90
2019-05-17T23:31:35.693Z,99.90
2019-05-17T23:34:04.237Z,99.90
2019-05-17T23:36:32.735Z,99.90
2019-05-17T23:39:01.157Z,99.90
2019-05-17T23:41:29.594Z,99.90
2019-05-17T23:43:58.033Z,99.90
2019-05-17T23:46:26.460Z,99.90
2019-05-17T23:48:55.045Z,99.90
2019-05-17T23:51:23.591Z,99.90
2019-05-17T23:53:52.098Z,99.90
2019-05-17T23:56:20.729Z,99.90
2019-05-17T23:58:49.161Z,99.90
